createdAt,value
2022-08-25T16:00:01.654Z,444.38
2022-08-25T16:01:01.680Z,461.25
2022-08-25T16:02:01.636Z,410.62
2022-08-25T16:03:01.629Z,382.5
2022-08-25T16:04:01.618Z,376.88
2022-08-25T16:05:01.605Z,376.88
2022-08-25T16:06:01.649Z,360
2022-08-25T16:07:01.594Z,320.62
2022-08-25T16:08:01.572Z,315
2022-08-25T16:09:01.581Z,320.62
2022-08-25T16:10:01.557Z,315
2022-08-25T16:11:01.545Z,303.75
2022-08-25T16:12:01.547Z,303.75
2022-08-25T16:13:01.540Z,303.75
2022-08-25T16:14:01.516Z,303.75
2022-08-25T16:15:01.505Z,298.12
2022-08-25T16:16:01.499Z,292.5
2022-08-25T16:17:01.487Z,230.62
2022-08-25T16:18:01.482Z,275.62
2022-08-25T16:19:01.474Z,258.75
2022-08-25T16:20:01.454Z,275.62
2022-08-25T16:21:01.445Z,258.75
2022-08-25T16:22:01.456Z,264.38
2022-08-25T16:23:01.462Z,281.25
2022-08-25T16:24:01.417Z,292.5
2022-08-25T16:25:01.501Z,286.88
2022-08-25T16:26:01.424Z,281.25
2022-08-25T16:27:01.406Z,281.25
2022-08-25T16:28:01.378Z,281.25
2022-08-25T16:29:01.369Z,270
2022-08-25T16:30:01.373Z,258.75
2022-08-25T16:31:01.409Z,253.12
2022-08-25T16:32:01.335Z,247.5
2022-08-25T16:33:01.327Z,253.12
2022-08-25T16:34:01.316Z,253.12
2022-08-25T16:35:01.309Z,247.5
2022-08-25T16:36:01.292Z,258.75
2022-08-25T16:37:01.291Z,253.12
2022-08-25T16:38:01.278Z,84.38
2022-08-25T16:39:01.263Z,112.5
2022-08-25T16:40:01.271Z,95.62
2022-08-25T16:41:01.248Z,78.75
2022-08-25T16:42:01.234Z,84.38
2022-08-25T16:43:01.283Z,84.38
2022-08-25T16:44:01.223Z,84.38
2022-08-25T16:45:01.214Z,84.38
2022-08-25T16:46:01.227Z,84.38
2022-08-25T16:47:01.193Z,84.38
2022-08-25T16:48:01.204Z,84.38
2022-08-25T16:49:01.170Z,247.5
2022-08-25T16:50:01.163Z,416.25
2022-08-25T16:51:01.167Z,112.5
2022-08-25T16:52:01.159Z,236.25
2022-08-25T16:53:01.157Z,315
2022-08-25T16:54:01.123Z,275.62
2022-08-25T16:55:01.105Z,236.25
2022-08-25T16:56:01.106Z,208.12
2022-08-25T16:57:01.157Z,196.88
2022-08-25T16:58:01.133Z,185.62
2022-08-25T16:59:01.065Z,168.75
2022-08-25T17:00:01.072Z,174.38
2022-08-25T17:01:01.042Z,151.88
2022-08-25T17:02:01.088Z,140.62
2022-08-25T17:03:01.036Z,123.75
2022-08-25T17:04:01.043Z,112.5
2022-08-25T17:05:01.005Z,112.5
2022-08-25T17:06:01.005Z,106.88
2022-08-25T17:07:00.984Z,101.25
2022-08-25T17:08:00.970Z,95.62
2022-08-25T17:09:00.980Z,90
2022-08-25T17:10:00.948Z,90
2022-08-25T17:11:00.941Z,84.38
2022-08-25T17:12:01.003Z,84.38
2022-08-25T17:13:00.920Z,78.75
2022-08-25T17:14:00.913Z,78.75
2022-08-25T17:15:00.910Z,73.12
2022-08-25T17:16:00.901Z,73.12
2022-08-25T17:17:00.890Z,73.12
2022-08-25T17:18:00.896Z,73.12
2022-08-25T17:19:00.874Z,61.88
2022-08-25T17:20:00.859Z,61.88
2022-08-25T17:21:00.844Z,56.25
2022-08-25T17:22:00.837Z,56.25
2022-08-25T17:23:00.825Z,50.62
2022-08-25T17:24:00.813Z,50.62
2022-08-25T17:25:00.806Z,50.62
2022-08-25T17:26:00.840Z,50.62
2022-08-25T17:27:00.780Z,45
2022-08-25T17:28:00.765Z,45
2022-08-25T17:29:00.759Z,45
2022-08-25T17:30:00.776Z,45
2022-08-25T17:31:00.737Z,45
2022-08-25T17:32:00.733Z,45
2022-08-25T17:33:00.721Z,39.38
2022-08-25T17:34:00.711Z,39.38
2022-08-25T17:35:00.709Z,39.38
2022-08-25T17:36:00.692Z,39.38
2022-08-25T17:37:00.688Z,39.38
2022-08-25T17:38:00.666Z,39.38
2022-08-25T17:39:00.661Z,33.75
2022-08-25T17:40:00.650Z,33.75
2022-08-25T17:41:00.662Z,33.75
2022-08-25T17:42:00.637Z,33.75
2022-08-25T17:43:00.616Z,33.75
2022-08-25T17:44:00.618Z,33.75
2022-08-25T17:45:00.631Z,28.12
2022-08-25T17:46:00.596Z,28.12
2022-08-25T17:47:00.583Z,28.12
2022-08-25T17:48:00.597Z,28.12
2022-08-25T17:49:00.564Z,28.12
2022-08-25T17:50:00.553Z,28.12
2022-08-25T17:51:00.542Z,28.12
2022-08-25T17:52:00.528Z,22.5
2022-08-25T17:53:00.529Z,22.5
2022-08-25T17:54:00.528Z,22.5
2022-08-25T17:55:00.500Z,22.5
2022-08-25T17:56:00.494Z,22.5
2022-08-25T17:57:00.476Z,16.88
2022-08-25T17:58:00.478Z,16.88
2022-08-25T17:59:00.482Z,16.88
2022-08-25T18:00:00.452Z,16.88
2022-08-25T18:01:00.440Z,16.88
2022-08-25T18:02:00.426Z,16.88
2022-08-25T18:03:00.418Z,16.88
2022-08-25T18:04:00.406Z,16.88
2022-08-25T18:05:00.407Z,11.25
2022-08-25T18:06:00.390Z,11.25
2022-08-25T18:07:00.395Z,11.25
2022-08-25T18:08:00.363Z,11.25
2022-08-25T18:09:00.356Z,11.25
2022-08-25T18:10:00.348Z,11.25
2022-08-25T18:11:00.334Z,11.25
2022-08-25T18:12:00.330Z,11.25
2022-08-25T18:13:08.933Z,5.62
2022-08-25T18:14:00.307Z,5.62
2022-08-25T18:15:00.296Z,5.62
2022-08-25T18:16:00.290Z,5.62
2022-08-25T18:17:00.294Z,5.62
2022-08-25T18:18:00.268Z,5.62
2022-08-25T18:19:00.257Z,5.62
2022-08-25T18:20:00.254Z,5.62
2022-08-25T18:21:00.235Z,5.62
2022-08-25T18:22:00.228Z,0
2022-08-25T18:23:00.266Z,0
2022-08-25T18:24:00.301Z,0
2022-08-25T18:25:00.210Z,0
2022-08-25T18:26:00.206Z,0
2022-08-25T18:27:00.170Z,0
2022-08-25T18:28:00.178Z,0
2022-08-25T18:29:00.146Z,0
2022-08-25T18:30:00.139Z,0
2022-08-25T18:31:00.126Z,0
2022-08-25T18:32:00.124Z,0
2022-08-25T18:33:00.153Z,0
2022-08-25T18:34:00.115Z,0
2022-08-25T18:35:00.088Z,0
2022-08-25T18:36:00.085Z,0
2022-08-25T18:37:00.077Z,0
2022-08-25T18:38:00.055Z,0
2022-08-25T18:39:00.069Z,0
2022-08-25T18:40:00.036Z,0
2022-08-25T18:41:00.037Z,0
2022-08-25T18:42:00.014Z,0
2022-08-25T18:43:00.005Z,0
2022-08-25T18:44:00.004Z,0
2022-08-25T18:45:00.009Z,0
2022-08-25T18:46:00.008Z,0
2022-08-25T18:46:59.986Z,0
2022-08-25T18:47:59.966Z,0
2022-08-25T18:49:00.016Z,0
2022-08-25T18:49:59.932Z,0
2022-08-25T18:50:59.980Z,0
2022-08-25T18:51:59.951Z,0
2022-08-25T18:52:59.898Z,0
2022-08-25T18:53:59.913Z,0
2022-08-25T18:54:59.870Z,0
2022-08-25T18:55:59.866Z,0
2022-08-25T18:56:59.862Z,0
2022-08-25T18:57:59.842Z,0
2022-08-25T18:58:59.837Z,0
2022-08-25T19:00:00.578Z,0
2022-08-25T19:00:59.816Z,0
2022-08-25T19:01:59.804Z,0
2022-08-25T19:02:59.788Z,0
2022-08-25T19:03:59.778Z,0
2022-08-25T19:04:59.775Z,0
2022-08-25T19:05:59.760Z,0
2022-08-25T19:06:59.767Z,0
2022-08-25T19:07:59.746Z,0
2022-08-25T19:08:59.727Z,0
2022-08-25T19:09:59.732Z,0
2022-08-25T19:10:59.705Z,0
2022-08-25T19:11:59.730Z,0
2022-08-25T19:12:59.688Z,0
2022-08-25T19:13:59.690Z,0
2022-08-25T19:14:59.672Z,0
2022-08-25T19:15:59.680Z,0
2022-08-25T19:16:59.645Z,0
2022-08-25T19:17:59.672Z,0
2022-08-25T19:18:59.672Z,0
2022-08-25T19:19:59.648Z,0
2022-08-25T19:20:59.604Z,0
2022-08-25T19:21:59.599Z,0
2022-08-25T19:22:59.592Z,0
2022-08-25T19:23:59.628Z,0
2022-08-25T19:24:59.568Z,0
2022-08-25T19:25:59.565Z,0
2022-08-25T19:26:59.540Z,0
2022-08-25T19:27:59.533Z,0
2022-08-25T19:28:59.529Z,0
2022-08-25T19:29:59.515Z,0
2022-08-25T19:30:59.505Z,0
2022-08-25T19:31:59.497Z,0
2022-08-25T19:32:59.484Z,0
2022-08-25T19:33:59.472Z,0
2022-08-25T19:34:59.534Z,0
2022-08-25T19:35:59.451Z,0
2022-08-25T19:36:59.441Z,0
2022-08-25T19:37:59.438Z,0
2022-08-25T19:38:59.456Z,0
2022-08-25T19:39:59.425Z,0
2022-08-25T19:40:59.399Z,0
2022-08-25T19:41:59.389Z,0
2022-08-25T19:42:59.385Z,0
2022-08-25T19:43:59.387Z,0
2022-08-25T19:44:59.364Z,0
2022-08-25T19:45:59.375Z,0
2022-08-25T19:46:59.349Z,0
2022-08-25T19:48:00.075Z,0
2022-08-25T19:48:59.325Z,0
2022-08-25T19:49:59.331Z,0
2022-08-25T19:50:59.326Z,0
2022-08-25T19:51:59.359Z,0
2022-08-25T19:52:59.313Z,0
2022-08-25T19:53:59.343Z,0
2022-08-25T19:54:59.269Z,0
2022-08-25T19:55:59.327Z,0
2022-08-25T19:56:59.242Z,0
2022-08-25T19:57:59.251Z,0
2022-08-25T19:58:59.231Z,0
2022-08-25T19:59:59.253Z,0
2022-08-25T20:00:59.218Z,0
2022-08-25T20:01:59.195Z,0
2022-08-25T20:02:59.185Z,0
2022-08-25T20:03:59.173Z,0
2022-08-25T20:04:59.164Z,0
2022-08-25T20:05:59.152Z,0
2022-08-25T20:06:59.150Z,0
2022-08-25T20:07:59.135Z,0
2022-08-25T20:08:59.123Z,0
2022-08-25T20:09:59.122Z,0
2022-08-25T20:10:59.101Z,0
2022-08-25T20:11:59.096Z,0
2022-08-25T20:13:06.641Z,0
2022-08-25T20:13:59.066Z,0
2022-08-25T20:16:17.400Z,0
2022-08-25T20:17:17.384Z,0
2022-08-25T20:18:17.373Z,0
2022-08-25T20:19:17.376Z,0
2022-08-25T20:20:17.383Z,0
2022-08-25T20:21:17.358Z,0
2022-08-25T20:22:17.341Z,0
2022-08-25T20:23:17.323Z,0
2022-08-25T20:24:17.320Z,0
2022-08-25T20:25:17.310Z,0
2022-08-25T20:26:17.287Z,0
2022-08-25T20:27:17.284Z,0
2022-08-25T20:28:17.280Z,0
2022-08-25T20:29:17.267Z,0
2022-08-25T20:30:17.253Z,0
2022-08-25T20:31:17.265Z,0
2022-08-25T20:32:17.237Z,0
2022-08-25T20:33:17.227Z,0
2022-08-25T20:34:17.207Z,0
2022-08-25T20:35:17.197Z,0
2022-08-25T20:36:17.192Z,0
2022-08-25T20:37:17.170Z,0
2022-08-25T20:38:17.168Z,0
2022-08-25T20:39:17.178Z,0
2022-08-25T20:40:17.140Z,0
2022-08-25T20:41:17.133Z,0
2022-08-25T20:42:17.134Z,0
2022-08-25T20:43:17.113Z,0
2022-08-25T20:44:17.100Z,0
2022-08-25T20:45:17.103Z,0
2022-08-25T20:46:17.093Z,0
2022-08-25T20:47:17.068Z,0
2022-08-25T20:48:17.071Z,0
2022-08-25T20:49:17.044Z,0
2022-08-25T20:50:17.038Z,0
2022-08-25T20:51:17.039Z,0
2022-08-25T20:52:17.015Z,0
2022-08-25T20:53:17.010Z,0
2022-08-25T20:54:16.990Z,0
2022-08-25T20:55:16.983Z,0
2022-08-25T20:56:16.982Z,0
2022-08-25T20:57:16.963Z,0
2022-08-25T20:58:16.946Z,0
2022-08-25T20:59:16.947Z,0
2022-08-25T21:00:16.933Z,0
2022-08-25T21:01:16.915Z,0
2022-08-25T21:02:16.918Z,0
2022-08-25T21:03:16.897Z,0
2022-08-25T21:04:16.884Z,0
2022-08-25T21:05:16.877Z,0
2022-08-25T21:06:16.863Z,0
2022-08-25T21:07:16.859Z,0
2022-08-25T21:08:16.851Z,0
2022-08-25T21:09:16.830Z,0
2022-08-25T21:10:16.823Z,0
2022-08-25T21:11:16.829Z,0
2022-08-25T21:12:16.796Z,0
2022-08-25T21:13:16.789Z,0
2022-08-25T21:14:16.810Z,0
2022-08-25T21:15:16.766Z,0
2022-08-25T21:16:16.767Z,0
2022-08-25T21:17:16.769Z,0
2022-08-25T21:18:16.738Z,0
2022-08-25T21:19:16.728Z,0
2022-08-25T21:20:16.717Z,0
2022-08-25T21:21:16.706Z,0
2022-08-25T21:22:16.703Z,0
2022-08-25T21:23:16.685Z,0
2022-08-25T21:24:16.674Z,0
2022-08-25T21:25:16.683Z,0
2022-08-25T21:26:16.649Z,0
2022-08-25T21:27:16.641Z,0
2022-08-25T21:28:16.636Z,0
2022-08-25T21:29:16.624Z,0
2022-08-25T21:30:16.606Z,0
2022-08-25T21:31:16.599Z,0
2022-08-25T21:32:16.587Z,0
2022-08-25T21:33:16.586Z,0
2022-08-25T21:34:16.576Z,0
2022-08-25T21:35:16.567Z,0
2022-08-25T21:36:16.542Z,0
2022-08-25T21:37:16.535Z,0
2022-08-25T21:38:16.535Z,0
2022-08-25T21:39:16.522Z,0
2022-08-25T21:40:16.503Z,0
2022-08-25T21:41:16.496Z,0
2022-08-25T21:42:16.492Z,0
2022-08-25T21:43:16.473Z,0
2022-08-25T21:44:16.465Z,0
2022-08-25T21:45:16.515Z,0
2022-08-25T21:46:16.458Z,0
2022-08-25T21:47:16.426Z,0
2022-08-25T21:48:16.415Z,0
2022-08-25T21:49:16.419Z,0
2022-08-25T21:50:16.399Z,0
2022-08-25T21:51:16.383Z,0
2022-08-25T21:52:16.376Z,0
2022-08-25T21:53:16.381Z,0
2022-08-25T21:54:16.356Z,0
2022-08-25T21:55:16.353Z,0
2022-08-25T21:56:16.329Z,0
2022-08-25T21:57:16.348Z,0
2022-08-25T21:58:16.320Z,0
2022-08-25T21:59:16.314Z,0
2022-08-25T22:00:16.292Z,0
2022-08-25T22:01:16.291Z,0
2022-08-25T22:02:16.268Z,0
2022-08-25T22:03:16.256Z,0
2022-08-25T22:04:16.259Z,0
2022-08-25T22:05:16.235Z,0
2022-08-25T22:06:16.226Z,0
2022-08-25T22:07:16.221Z,0
2022-08-25T22:08:16.222Z,0
2022-08-25T22:09:16.194Z,0
2022-08-25T22:10:16.247Z,0
2022-08-25T22:11:16.178Z,0
2022-08-25T22:12:16.162Z,0
2022-08-25T22:13:16.156Z,0
2022-08-25T22:14:16.142Z,0
2022-08-25T22:15:16.143Z,0
2022-08-25T22:16:16.122Z,0
2022-08-25T22:17:16.107Z,0
2022-08-25T22:18:16.113Z,0
2022-08-25T22:19:16.099Z,0
2022-08-25T22:20:16.074Z,0
2022-08-25T22:21:16.209Z,0
2022-08-25T22:22:16.054Z,0
2022-08-25T22:23:16.046Z,0
2022-08-25T22:24:16.037Z,0
2022-08-25T22:25:16.037Z,0
2022-08-25T22:26:16.012Z,0
2022-08-25T22:27:16.004Z,0
2022-08-25T22:28:16.028Z,0
2022-08-25T22:29:16.006Z,0
2022-08-25T22:30:16.001Z,0
2022-08-25T22:31:15.961Z,0
2022-08-25T22:32:15.953Z,0
2022-08-25T22:33:15.937Z,0
2022-08-25T22:34:15.928Z,0
2022-08-25T22:35:15.920Z,0
2022-08-25T22:36:15.915Z,0
2022-08-25T22:37:15.897Z,0
2022-08-25T22:38:15.893Z,0
2022-08-25T22:39:15.880Z,0
2022-08-25T22:40:15.862Z,0
2022-08-25T22:41:15.871Z,0
2022-08-25T22:42:15.848Z,0
2022-08-25T22:43:15.834Z,0
2022-08-25T22:44:15.825Z,0
2022-08-25T22:45:15.816Z,0
2022-08-25T22:46:15.811Z,0
2022-08-25T22:47:15.818Z,0
2022-08-25T22:48:15.788Z,0
2022-08-25T22:49:15.767Z,0
2022-08-25T22:50:15.760Z,0
2022-08-25T22:51:15.752Z,0
2022-08-25T22:52:15.736Z,0
2022-08-25T22:53:15.725Z,0
2022-08-25T22:54:15.727Z,0
2022-08-25T22:55:15.710Z,0
2022-08-25T22:56:15.697Z,0
2022-08-25T22:57:15.683Z,0
2022-08-25T22:58:15.679Z,0
2022-08-25T22:59:15.687Z,0
2022-08-25T23:00:15.649Z,0
2022-08-25T23:01:15.635Z,0
2022-08-25T23:02:15.628Z,0
2022-08-25T23:03:15.631Z,0
2022-08-25T23:04:15.609Z,0
2022-08-25T23:05:15.606Z,0
2022-08-25T23:06:15.595Z,0
2022-08-25T23:07:15.578Z,0
2022-08-25T23:08:15.565Z,0
2022-08-25T23:09:15.562Z,0
2022-08-25T23:10:15.555Z,0
2022-08-25T23:11:15.531Z,0
2022-08-25T23:12:15.560Z,0
2022-08-25T23:13:15.513Z,0
2022-08-25T23:14:15.505Z,0
2022-08-25T23:15:15.490Z,0
2022-08-25T23:16:15.481Z,0
2022-08-25T23:17:15.468Z,0
2022-08-25T23:18:15.457Z,0
2022-08-25T23:19:15.451Z,0
2022-08-25T23:20:15.435Z,0
2022-08-25T23:21:15.432Z,0
2022-08-25T23:22:15.428Z,0
2022-08-25T23:23:15.407Z,0
2022-08-25T23:24:15.392Z,0
2022-08-25T23:25:15.385Z,0
2022-08-25T23:26:15.374Z,0
2022-08-25T23:27:15.367Z,0
2022-08-25T23:28:15.352Z,0
2022-08-25T23:29:15.357Z,0
2022-08-25T23:30:15.333Z,0
2022-08-25T23:31:15.323Z,0
2022-08-25T23:32:15.319Z,0
2022-08-25T23:33:15.308Z,0
2022-08-25T23:34:15.285Z,0
2022-08-25T23:35:15.279Z,0
2022-08-25T23:36:15.290Z,0
2022-08-25T23:37:15.255Z,0
2022-08-25T23:38:15.246Z,0
2022-08-25T23:39:15.237Z,0
2022-08-25T23:40:15.221Z,0
2022-08-25T23:41:15.215Z,0
2022-08-25T23:42:15.209Z,0
2022-08-25T23:43:15.194Z,0
2022-08-25T23:44:15.187Z,0
2022-08-25T23:45:15.167Z,0
2022-08-25T23:46:15.159Z,0
2022-08-25T23:47:15.145Z,0
2022-08-25T23:48:15.174Z,0
2022-08-25T23:49:15.130Z,0
2022-08-25T23:50:15.116Z,0
2022-08-25T23:51:15.120Z,0
2022-08-25T23:52:15.096Z,0
2022-08-25T23:53:15.095Z,0
2022-08-25T23:54:15.075Z,0
2022-08-25T23:55:15.073Z,0
2022-08-25T23:56:15.061Z,0
2022-08-25T23:57:15.040Z,0
2022-08-25T23:58:15.035Z,0
2022-08-25T23:59:15.036Z,0
